Time;durP1;ratioP1;P1;durP2;ratioP2;P2;SDS_P1;SDS_P2;PMS_P1;PMS_P2;Temp;Humidity;BMP_temperature;BMP_pressure;BME280_temperature;BME280_humidity;BME280_pressure;Samples;Min_cycle;Max_cycle;Signal;HPM_P1;HPM_P2
2023/04/06 00:01:38;;;;;;;;;;;;;;;4.30;58.97;99458.47;5094231;28;19923;-40
2023/04/06 00:04:04;;;;;;;;;;;;;;;4.37;59.25;99445.41;5094251;28;20352;-40
2023/04/06 00:06:30;;;;;;;;;;;;;;;4.09;58.77;99431.84;5094110;28;19935;-41
2023/04/06 00:08:55;;;;;;;;;;;;;;;3.92;59.11;99450.31;5094104;28;19970;-40
2023/04/06 00:11:21;;;;;;;;;;;;;;;3.74;59.95;99451.50;5093998;28;20323;-40
2023/04/06 00:13:46;;;;;;;;;;;;;;;3.80;59.50;99449.00;5094051;28;19950;-41
2023/04/06 00:16:11;;;;;;;;;;;;;;;4.06;59.32;99442.72;5094033;28;19912;-41
2023/04/06 00:18:37;;;;;;;;;;;;;;;4.02;58.50;99441.41;5093860;28;19919;-40
2023/04/06 00:21:03;;;;;;;;;;;;;;;3.67;59.38;99449.50;5094086;28;20080;-41
2023/04/06 00:23:28;;;;;;;;;;;;;;;3.87;59.00;99441.28;5093647;28;19927;-40
2023/04/06 00:25:53;;;;;;;;;;;;;;;3.85;59.01;99438.81;5093448;28;19923;-41
2023/04/06 00:28:24;;;;;;;;;;;;;;;3.82;59.87;99438.31;5093772;28;19943;-40
2023/04/06 00:30:52;;;;;;;;;;;;;;;3.62;60.36;99440.50;5093851;28;19922;-40
2023/04/06 00:33:17;;;;;;;;;;;;;;;3.65;59.95;99440.16;5093957;28;19916;-40
2023/04/06 00:35:42;;;;;;;;;;;;;;;3.92;60.22;99431.91;5093916;28;19930;-40
2023/04/06 00:38:07;;;;;;;;;;;;;;;4.00;59.20;99433.69;5092904;28;20294;-40
2023/04/06 00:40:34;;;;;;;;;;;;;;;4.20;59.08;99431.47;5093629;28;20003;-40
2023/04/06 00:42:59;;;;;;;;;;;;;;;3.99;58.81;99428.59;5093624;28;19969;-41
2023/04/06 00:45:25;;;;;;;;;;;;;;;3.63;59.59;99426.34;5093432;28;19916;-41
2023/04/06 00:47:50;;;;;;;;;;;;;;;3.84;59.20;99423.19;5094044;28;19924;-40
2023/04/06 00:50:16;;;;;;;;;;;;;;;4.07;59.26;99426.75;5093398;28;20471;-41
2023/04/06 00:52:42;;;;;;;;;;;;;;;3.58;59.32;99429.47;5094152;28;19912;-41
2023/04/06 00:55:07;;;;;;;;;;;;;;;3.87;59.11;99420.22;5093961;28;19916;-41
2023/04/06 00:57:32;;;;;;;;;;;;;;;3.95;59.04;99420.19;5093839;28;19958;-41
2023/04/06 00:59:58;;;;;;;;;;;;;;;3.60;60.17;99419.59;5093845;28;19919;-41
2023/04/06 01:02:24;;;;;;;;;;;;;;;3.53;60.12;99422.06;5093921;28;19918;-41
2023/04/06 01:04:49;;;;;;;;;;;;;;;3.05;61.88;99412.38;5093812;28;19919;-42
2023/04/06 01:07:15;;;;;;;;;;;;;;;3.08;61.80;99417.28;5093579;28;19912;-41
2023/04/06 01:09:41;;;;;;;;;;;;;;;3.02;62.59;99412.69;5093742;28;19973;-40
2023/04/06 01:12:07;;;;;;;;;;;;;;;3.42;60.28;99413.69;5093638;28;20299;-41
2023/04/06 01:14:32;;;;;;;;;;;;;;;3.05;61.00;99402.69;5093658;28;19931;-40
2023/04/06 01:16:58;;;;;;;;;;;;;;;3.42;60.64;99403.97;5093605;28;19916;-40
2023/04/06 01:19:24;;;;;;;;;;;;;;;3.30;61.13;99403.50;5093600;28;19916;-40
2023/04/06 01:21:50;;;;;;;;;;;;;;;3.47;60.56;99399.06;5093494;28;19981;-40
2023/04/06 01:24:15;;;;;;;;;;;;;;;3.35;61.16;99395.13;5093214;28;19920;-40
2023/04/06 01:26:40;;;;;;;;;;;;;;;3.42;60.59;99390.84;5092980;28;19927;-40
2023/04/06 01:29:06;;;;;;;;;;;;;;;3.51;60.90;99389.84;5087584;28;19935;-40
2023/04/06 01:31:31;;;;;;;;;;;;;;;3.52;59.88;99382.75;5093613;28;19912;-40
2023/04/06 01:33:56;;;;;;;;;;;;;;;3.11;60.98;99380.16;5093170;28;20014;-40
2023/04/06 01:36:22;;;;;;;;;;;;;;;3.04;61.27;99379.16;5092879;28;19912;-41
2023/04/06 01:38:47;;;;;;;;;;;;;;;3.08;61.38;99375.22;5093094;28;19919;-40
2023/04/06 01:41:12;;;;;;;;;;;;;;;3.28;60.19;99370.47;5093278;28;20295;-41
2023/04/06 01:43:38;;;;;;;;;;;;;;;3.41;59.81;99368.16;5093064;28;19912;-41
2023/04/06 01:46:03;;;;;;;;;;;;;;;3.44;60.34;99369.63;5093157;28;19912;-41
2023/04/06 01:48:29;;;;;;;;;;;;;;;3.61;60.00;99373.06;5092454;28;19973;-41
2023/04/06 01:50:55;;;;;;;;;;;;;;;3.36;59.95;99369.63;5092426;28;20004;-41
2023/04/06 01:53:20;;;;;;;;;;;;;;;3.17;60.26;99370.81;5093091;28;19923;-40
2023/04/06 01:55:46;;;;;;;;;;;;;;;3.38;60.61;99375.56;5092758;28;19912;-41
2023/04/06 01:58:11;;;;;;;;;;;;;;;3.27;60.07;99369.63;5092790;28;20362;-40
2023/04/06 02:00:37;;;;;;;;;;;;;;;3.01;61.10;99354.03;5092787;28;19923;-40
2023/04/06 02:03:02;;;;;;;;;;;;;;;3.15;60.98;99357.81;5092670;28;20284;-40
2023/04/06 02:05:29;;;;;;;;;;;;;;;3.43;60.96;99354.84;5092554;28;19932;-40
2023/04/06 02:07:54;;;;;;;;;;;;;;;3.26;60.09;99356.66;5092196;28;19912;-40
2023/04/06 02:10:20;;;;;;;;;;;;;;;3.40;60.40;99358.59;5092103;28;19912;-40
2023/04/06 02:12:45;;;;;;;;;;;;;;;3.22;59.37;99355.31;5092545;28;19916;-40
2023/04/06 02:15:13;;;;;;;;;;;;;;;3.60;59.23;99361.72;5092385;28;19924;-40
2023/04/06 02:17:38;;;;;;;;;;;;;;;3.46;58.80;99355.31;5090978;28;19972;-42
2023/04/06 02:20:03;;;;;;;;;;;;;;;3.35;59.13;99358.31;5092342;28;19916;-40
2023/04/06 02:22:29;;;;;;;;;;;;;;;3.43;59.45;99357.47;5092307;28;19912;-41
2023/04/06 02:24:54;;;;;;;;;;;;;;;2.99;60.58;99363.06;5092213;28;20036;-40
2023/04/06 02:27:19;;;;;;;;;;;;;;;3.23;60.21;99367.50;5091931;28;19912;-40
2023/04/06 02:29:44;;;;;;;;;;;;;;;3.21;60.70;99365.03;5092084;28;19912;-40
2023/04/06 02:32:10;;;;;;;;;;;;;;;3.11;61.36;99361.75;5092047;28;20350;-41
2023/04/06 02:34:35;;;;;;;;;;;;;;;3.32;61.16;99371.78;5090053;28;19921;-41
2023/04/06 02:37:00;;;;;;;;;;;;;;;3.08;61.81;99373.41;5091285;28;20362;-40
2023/04/06 02:39:26;;;;;;;;;;;;;;;3.19;61.03;99376.72;5092285;28;20002;-40
2023/04/06 02:41:51;;;;;;;;;;;;;;;3.19;60.98;99374.09;5091819;28;20365;-41
2023/04/06 02:44:16;;;;;;;;;;;;;;;3.10;61.98;99376.72;5092292;28;19912;-41
2023/04/06 02:46:41;;;;;;;;;;;;;;;3.36;60.77;99346.78;5097239;28;19912;-41
2023/04/06 02:49:07;;;;;;;;;;;;;;;3.03;61.51;99378.34;5107357;28;19931;-41
2023/04/06 02:51:33;;;;;;;;;;;;;;;3.14;61.61;99371.94;5100769;28;19919;-41
2023/04/06 02:53:58;;;;;;;;;;;;;;;3.24;60.82;99371.78;5088530;28;19928;-41
2023/04/06 02:56:23;;;;;;;;;;;;;;;2.83;62.04;99377.81;5083809;28;19970;-41
2023/04/06 02:58:49;;;;;;;;;;;;;;;3.12;61.81;99382.63;5091490;28;20026;-41
2023/04/06 03:01:14;;;;;;;;;;;;;;;2.98;62.08;99374.56;5079532;28;20010;-41
2023/04/06 03:03:40;;;;;;;;;;;;;;;3.21;61.46;99374.75;5091769;28;20360;-41
2023/04/06 03:06:05;;;;;;;;;;;;;;;3.00;61.41;99370.78;5091627;28;19912;-41
2023/04/06 03:08:30;;;;;;;;;;;;;;;2.74;61.96;99374.38;5094435;28;19916;-41
2023/04/06 03:10:56;;;;;;;;;;;;;;;2.84;62.16;99374.22;5091635;28;19951;-41
2023/04/06 03:13:21;;;;;;;;;;;;;;;2.90;62.09;99372.75;5106766;28;19947;-41
2023/04/06 03:15:46;;;;;;;;;;;;;;;3.02;62.05;99375.88;5112056;28;19912;-41
2023/04/06 03:18:12;;;;;;;;;;;;;;;2.79;63.09;99378.31;5093604;28;19916;-41
2023/04/06 03:20:37;;;;;;;;;;;;;;;2.62;63.56;99375.66;5074088;28;19912;-41
2023/04/06 03:23:02;;;;;;;;;;;;;;;2.78;63.19;99374.03;5083588;28;19922;-40
2023/04/06 03:25:28;;;;;;;;;;;;;;;2.54;63.13;99379.09;5099363;28;19916;-41
2023/04/06 03:27:53;;;;;;;;;;;;;;;2.57;63.99;99379.75;5110140;28;19915;-36
2023/04/06 03:30:18;;;;;;;;;;;;;;;2.77;62.94;99380.31;5091124;28;20297;-41
2023/04/06 03:32:44;;;;;;;;;;;;;;;2.99;62.44;99369.16;5087616;28;19916;-41
2023/04/06 03:35:09;;;;;;;;;;;;;;;2.79;63.42;99371.25;5090157;28;19962;-41
2023/04/06 03:37:35;;;;;;;;;;;;;;;2.46;64.14;99370.38;5090911;28;20341;-41
2023/04/06 03:40:00;;;;;;;;;;;;;;;2.48;64.48;99374.50;5085996;28;19939;-41
2023/04/06 03:42:26;;;;;;;;;;;;;;;2.43;63.81;99378.56;5070539;28;19992;-41
2023/04/06 03:44:51;;;;;;;;;;;;;;;2.75;63.94;99383.09;5070877;28;19943;-41
2023/04/06 03:47:17;;;;;;;;;;;;;;;2.67;64.15;99381.25;5070888;28;19916;-41
2023/04/06 03:49:42;;;;;;;;;;;;;;;2.92;63.18;99376.03;5070725;28;19912;-40
2023/04/06 03:52:07;;;;;;;;;;;;;;;2.58;64.24;99378.78;5070720;28;19944;-40
2023/04/06 03:54:33;;;;;;;;;;;;;;;2.74;63.85;99379.66;5069904;28;19917;-41
2023/04/06 03:56:58;;;;;;;;;;;;;;;2.97;63.04;99375.53;5069511;28;19912;-41
2023/04/06 03:59:23;;;;;;;;;;;;;;;3.02;63.16;99381.13;5069524;28;20380;-40
2023/04/06 04:01:48;;;;;;;;;;;;;;;2.62;63.53;99382.72;5084719;28;19981;-40
2023/04/06 04:04:14;;;;;;;;;;;;;;;2.76;63.42;99371.59;5090209;28;19912;-40
2023/04/06 04:06:39;;;;;;;;;;;;;;;2.99;63.00;99376.19;5090212;28;19912;-40
2023/04/06 04:09:04;;;;;;;;;;;;;;;3.14;63.01;99371.94;5090516;28;20351;-40
2023/04/06 04:11:30;;;;;;;;;;;;;;;3.28;62.54;99367.84;5090814;28;19912;-40
2023/04/06 04:13:55;;;;;;;;;;;;;;;3.67;60.82;99375.00;5092918;28;20431;-41
2023/04/06 04:16:20;;;;;;;;;;;;;;;3.50;61.40;99374.22;5094776;28;19912;-40
2023/04/06 04:18:48;;;;;;;;;;;;;;;3.66;60.94;99368.13;5094611;28;20391;-41
2023/04/06 04:21:13;;;;;;;;;;;;;;;3.82;60.36;99370.69;5094654;28;20011;-41
2023/04/06 04:23:39;;;;;;;;;;;;;;;3.69;60.52;99371.25;5094433;28;20070;-40
2023/04/06 04:26:04;;;;;;;;;;;;;;;4.07;60.07;99360.94;5094593;28;19916;-41
2023/04/06 04:28:30;;;;;;;;;;;;;;;3.94;59.65;99368.53;5094121;28;19951;-40
2023/04/06 04:30:55;;;;;;;;;;;;;;;4.19;58.87;99360.53;5094308;28;19915;-40
2023/04/06 04:33:20;;;;;;;;;;;;;;;4.46;58.27;99364.53;5094543;28;19924;-40
2023/04/06 04:35:46;;;;;;;;;;;;;;;4.47;58.25;99374.06;5094226;28;19913;-40
2023/04/06 04:38:11;;;;;;;;;;;;;;;4.64;57.33;99361.63;5094609;28;19966;-41
2023/04/06 04:40:36;;;;;;;;;;;;;;;4.99;56.96;99368.13;5094321;28;19912;-40
2023/04/06 04:43:01;;;;;;;;;;;;;;;5.55;54.76;99365.19;5093296;28;19943;-41
2023/04/06 04:45:27;;;;;;;;;;;;;;;5.03;55.87;99364.16;5093814;28;19912;-41
2023/04/06 04:47:52;;;;;;;;;;;;;;;5.02;56.31;99373.03;5093351;28;19912;-40
2023/04/06 04:50:17;;;;;;;;;;;;;;;4.82;56.59;99364.78;5093421;28;19919;-40
2023/04/06 04:52:42;;;;;;;;;;;;;;;5.11;55.77;99360.63;5093618;28;19918;-41
2023/04/06 04:55:08;;;;;;;;;;;;;;;5.55;55.00;99367.00;5091666;28;19920;-41
2023/04/06 04:57:33;;;;;;;;;;;;;;;5.36;54.95;99365.69;5092683;28;19967;-40
2023/04/06 04:59:58;;;;;;;;;;;;;;;4.98;55.51;99368.31;5093580;28;19912;-41
2023/04/06 05:02:24;;;;;;;;;;;;;;;4.86;56.26;99362.63;5093242;28;19919;-41
2023/04/06 05:04:49;;;;;;;;;;;;;;;4.97;56.02;99358.75;5093209;28;19912;-42
2023/04/06 05:07:15;;;;;;;;;;;;;;;4.89;55.91;99355.19;5093788;28;19913;-41
2023/04/06 05:09:40;;;;;;;;;;;;;;;4.96;55.76;99354.47;5093312;28;20280;-40
2023/04/06 05:12:06;;;;;;;;;;;;;;;4.72;55.99;99351.00;5093394;28;19912;-41
2023/04/06 05:14:31;;;;;;;;;;;;;;;5.20;55.40;99356.94;5093349;28;20016;-41
2023/04/06 05:16:56;;;;;;;;;;;;;;;5.17;55.26;99348.53;5092845;28;19942;-40
2023/04/06 05:19:22;;;;;;;;;;;;;;;5.60;54.18;99352.28;5093077;28;19912;-41
2023/04/06 05:21:47;;;;;;;;;;;;;;;5.88;53.14;99354.25;5092967;28;19970;-40
2023/04/06 05:24:12;;;;;;;;;;;;;;;5.84;53.53;99353.00;5092616;28;19920;-41
2023/04/06 05:26:37;;;;;;;;;;;;;;;5.99;52.88;99339.81;5093166;28;20422;-40
2023/04/06 05:29:03;;;;;;;;;;;;;;;5.97;52.79;99355.84;5092960;28;19913;-42
2023/04/06 05:31:28;;;;;;;;;;;;;;;5.96;53.18;99354.22;5093108;28;19912;-41
2023/04/06 05:33:54;;;;;;;;;;;;;;;6.01;53.21;99348.38;5092461;28;19924;-42
2023/04/06 05:36:19;;;;;;;;;;;;;;;6.65;51.85;99356.47;5092777;28;19912;-41
2023/04/06 05:38:44;;;;;;;;;;;;;;;6.26;51.90;99346.25;5092583;28;19923;-40
2023/04/06 05:41:10;;;;;;;;;;;;;;;6.72;50.57;99350.41;5093608;28;19912;-41
2023/04/06 05:43:36;;;;;;;;;;;;;;;6.93;51.19;99345.16;5092936;28;20360;-40
2023/04/06 05:46:01;;;;;;;;;;;;;;;7.59;49.42;99344.03;5092825;28;20567;-41
2023/04/06 05:48:26;;;;;;;;;;;;;;;7.93;48.93;99339.75;5092668;28;19955;-41
2023/04/06 05:50:52;;;;;;;;;;;;;;;8.47;46.91;99336.31;5092503;28;19916;-41
2023/04/06 05:53:18;;;;;;;;;;;;;;;8.87;46.70;99339.09;5092524;28;19919;-41
2023/04/06 05:55:43;;;;;;;;;;;;;;;9.18;44.46;99341.13;5091129;28;19912;-40
2023/04/06 05:58:09;;;;;;;;;;;;;;;8.91;45.37;99326.19;5090984;28;20019;-40
2023/04/06 06:00:34;;;;;;;;;;;;;;;8.52;46.20;99327.78;5091184;28;20018;-41
2023/04/06 06:02:59;;;;;;;;;;;;;;;8.89;44.98;99334.38;5090639;28;20126;-41
2023/04/06 06:05:25;;;;;;;;;;;;;;;9.00;44.95;99325.81;5091007;28;19912;-39
2023/04/06 06:07:50;;;;;;;;;;;;;;;8.57;45.11;99315.56;5091151;28;19912;-40
2023/04/06 06:10:15;;;;;;;;;;;;;;;9.38;44.20;99317.22;5091796;28;19912;-42
2023/04/06 06:12:41;;;;;;;;;;;;;;;10.13;43.31;99316.84;5091452;28;19923;-41
2023/04/06 06:15:06;;;;;;;;;;;;;;;10.15;42.73;99308.66;5091501;28;20012;-41
2023/04/06 06:17:32;;;;;;;;;;;;;;;10.22;42.42;99308.63;5091933;28;19955;-42
2023/04/06 06:19:57;;;;;;;;;;;;;;;11.06;42.29;99309.34;5092238;28;20354;-42
2023/04/06 06:22:22;;;;;;;;;;;;;;;11.09;40.56;99314.25;5091766;28;19920;-40
2023/04/06 06:24:49;;;;;;;;;;;;;;;10.86;41.07;99304.19;5091811;28;19924;-41
2023/04/06 06:27:14;;;;;;;;;;;;;;;10.83;40.26;99297.44;5091998;28;20006;-41
2023/04/06 06:29:40;;;;;;;;;;;;;;;10.36;40.74;99313.69;5092093;28;20383;-40
2023/04/06 06:32:05;;;;;;;;;;;;;;;11.16;39.86;99304.38;5091957;28;20003;-41
2023/04/06 06:34:30;;;;;;;;;;;;;;;10.70;40.24;99311.66;5091994;28;19923;-41
2023/04/06 06:36:56;;;;;;;;;;;;;;;10.23;40.90;99312.94;5091363;28;19920;-41
2023/04/06 06:39:21;;;;;;;;;;;;;;;10.40;39.79;99314.09;5092180;28;20402;-41
2023/04/06 06:41:47;;;;;;;;;;;;;;;10.36;41.05;99316.34;5091840;28;19912;-41
2023/04/06 06:44:12;;;;;;;;;;;;;;;11.07;39.80;99311.81;5091947;28;19912;-41
2023/04/06 06:46:37;;;;;;;;;;;;;;;11.05;38.84;99319.19;5092005;28;19927;-41
2023/04/06 06:49:03;;;;;;;;;;;;;;;11.30;38.39;99305.06;5091924;28;20087;-41
2023/04/06 06:51:28;;;;;;;;;;;;;;;10.62;39.46;99313.75;5091807;28;19935;-41
2023/04/06 06:53:53;;;;;;;;;;;;;;;11.61;38.92;99311.31;5091596;28;19956;-40
2023/04/06 06:56:19;;;;;;;;;;;;;;;11.76;38.36;99306.44;5091267;28;20388;-41
2023/04/06 06:58:44;;;;;;;;;;;;;;;11.76;39.01;99309.13;5091236;28;19919;-40
2023/04/06 07:01:10;;;;;;;;;;;;;;;12.48;37.86;99311.97;5091231;28;19927;-41
2023/04/06 07:03:35;;;;;;;;;;;;;;;12.54;37.34;99304.09;5091319;28;19911;-41
2023/04/06 07:06:00;;;;;;;;;;;;;;;12.87;36.43;99299.09;5091482;28;19955;-41
2023/04/06 07:08:26;;;;;;;;;;;;;;;12.23;36.94;99300.63;5091345;28;19912;-41
2023/04/06 07:10:52;;;;;;;;;;;;;;;12.20;37.12;99303.72;5091100;28;19916;-41
2023/04/06 07:13:21;;;;;;;;;;;;;;;12.49;37.57;99308.28;5091286;28;20002;-42
2023/04/06 07:15:47;;;;;;;;;;;;;;;12.57;37.69;99301.78;5091428;28;19916;-42
2023/04/06 07:18:12;;;;;;;;;;;;;;;13.02;36.81;99316.53;5091088;28;20351;-42
2023/04/06 07:20:37;;;;;;;;;;;;;;;13.56;35.86;99306.59;5091169;28;19913;-42
2023/04/06 07:23:02;;;;;;;;;;;;;;;13.79;35.48;99311.09;5090896;28;20049;-42
2023/04/06 07:25:29;;;;;;;;;;;;;;;14.29;35.57;99307.03;5091227;28;19916;-41
2023/04/06 07:27:54;;;;;;;;;;;;;;;13.66;35.59;99317.50;5091199;28;19919;-41
2023/04/06 07:30:20;;;;;;;;;;;;;;;13.27;35.45;99314.47;5091288;28;20011;-42
2023/04/06 07:32:45;;;;;;;;;;;;;;;14.44;34.22;99306.50;5090904;28;20012;-41
2023/04/06 07:35:10;;;;;;;;;;;;;;;14.63;33.55;99310.63;5090966;28;19921;-41
2023/04/06 07:37:36;;;;;;;;;;;;;;;14.60;33.35;99305.78;5091309;28;19912;-41
2023/04/06 07:40:01;;;;;;;;;;;;;;;13.94;34.70;99323.19;5091256;28;19916;-41
2023/04/06 07:42:26;;;;;;;;;;;;;;;13.86;35.34;99300.31;5091175;28;19984;-41
2023/04/06 07:44:52;;;;;;;;;;;;;;;14.82;33.84;99307.75;5090808;28;19916;-42
2023/04/06 07:47:17;;;;;;;;;;;;;;;14.45;33.94;99298.25;5091292;28;19912;-41
2023/04/06 07:49:42;;;;;;;;;;;;;;;14.15;34.23;99305.69;5095068;28;19969;-41
2023/04/06 07:52:07;;;;;;;;;;;;;;;14.18;34.74;99319.38;5094713;28;20390;-42
2023/04/06 07:54:33;;;;;;;;;;;;;;;14.42;34.66;99308.63;5094449;28;19916;-40
2023/04/06 07:56:58;;;;;;;;;;;;;;;14.71;34.24;99297.91;5094537;28;20055;-40
2023/04/06 07:59:23;;;;;;;;;;;;;;;14.74;33.52;99314.31;5094494;28;19912;-41
2023/04/06 08:01:49;;;;;;;;;;;;;;;14.68;34.35;99301.91;5094515;28;19919;-40
2023/04/06 08:04:14;;;;;;;;;;;;;;;14.85;33.36;99305.41;5094316;28;19912;-40
2023/04/06 08:06:41;;;;;;;;;;;;;;;15.12;32.44;99301.28;5094229;28;19919;-40
2023/04/06 08:09:06;;;;;;;;;;;;;;;14.21;34.45;99296.72;5094457;28;19976;-42
2023/04/06 08:11:31;;;;;;;;;;;;;;;14.45;34.86;99300.13;5094415;28;19927;-35
2023/04/06 08:13:57;;;;;;;;;;;;;;;15.29;34.15;99287.84;5094726;28;20433;-37
2023/04/06 08:16:22;;;;;;;;;;;;;;;16.35;31.87;99306.41;5094313;28;19916;-35
2023/04/06 08:18:48;;;;;;;;;;;;;;;16.38;31.44;99294.38;5094374;28;20373;-37
2023/04/06 08:21:13;;;;;;;;;;;;;;;15.92;31.21;99294.66;5094511;28;20411;-36
2023/04/06 08:23:39;;;;;;;;;;;;;;;16.55;31.71;99288.91;5094252;28;19954;-36
2023/04/06 08:26:04;;;;;;;;;;;;;;;16.76;31.16;99289.91;5094528;28;19920;-36
2023/04/06 08:28:29;;;;;;;;;;;;;;;15.80;31.90;99292.09;5094567;28;20372;-36
2023/04/06 08:30:54;;;;;;;;;;;;;;;16.45;31.58;99286.94;5094018;28;20368;-37
2023/04/06 08:33:20;;;;;;;;;;;;;;;16.35;31.85;99287.63;5093953;28;19912;-37
2023/04/06 08:35:45;;;;;;;;;;;;;;;16.41;31.22;99285.81;5094232;28;20049;-37
2023/04/06 08:38:11;;;;;;;;;;;;;;;16.39;32.04;99286.09;5094235;28;19912;-35
2023/04/06 08:40:39;;;;;;;;;;;;;;;16.63;31.64;99277.72;5094125;28;19957;-37
2023/04/06 08:43:09;;;;;;;;;;;;;;;16.75;31.27;99277.53;5094023;28;19935;-36
2023/04/06 08:45:35;;;;;;;;;;;;;;;16.08;31.70;99273.38;5094060;28;19931;-37
2023/04/06 08:48:02;;;;;;;;;;;;;;;16.31;32.06;99281.16;5093610;28;19916;-35
2023/04/06 08:50:29;;;;;;;;;;;;;;;15.98;32.79;99266.81;5093810;28;19912;-36
2023/04/06 08:52:55;;;;;;;;;;;;;;;15.97;31.81;99269.75;5093581;28;19916;-37
2023/04/06 08:55:22;;;;;;;;;;;;;;;16.03;32.19;99264.22;5093599;28;19916;-36
2023/04/06 08:57:47;;;;;;;;;;;;;;;16.59;30.84;99255.13;5093833;28;19912;-36
2023/04/06 09:00:13;;;;;;;;;;;;;;;16.76;31.56;99260.38;5093302;28;20432;-36
2023/04/06 09:02:40;;;;;;;;;;;;;;;16.49;31.90;99249.66;5093594;28;19916;-36
2023/04/06 09:05:07;;;;;;;;;;;;;;;15.99;32.08;99252.38;5093780;28;19912;-36
2023/04/06 09:07:32;;;;;;;;;;;;;;;16.85;30.89;99242.75;5093277;28;19923;-36
2023/04/06 09:09:58;;;;;;;;;;;;;;;16.89;31.18;99246.53;5093943;28;19912;-36
2023/04/06 09:12:27;;;;;;;;;;;;;;;16.48;31.34;99243.44;5093526;28;19912;-37
2023/04/06 09:14:52;;;;;;;;;;;;;;;16.01;32.15;99246.72;5092970;28;20377;-36
2023/04/06 09:17:28;;;;;;;;;;;;;;;16.74;31.16;99236.44;5092875;28;20360;-36
2023/04/06 09:19:54;;;;;;;;;;;;;;;16.95;30.92;99240.13;5093403;28;20026;-37
2023/04/06 09:22:20;;;;;;;;;;;;;;;16.17;31.71;99242.34;5093252;28;20392;-35
2023/04/06 09:24:46;;;;;;;;;;;;;;;16.23;32.47;99234.09;5092958;28;19924;-36
2023/04/06 09:27:11;;;;;;;;;;;;;;;16.41;31.85;99237.47;5093144;28;19912;-36
2023/04/06 09:29:37;;;;;;;;;;;;;;;16.05;32.30;99215.66;5093110;28;19912;-37
2023/04/06 09:32:06;;;;;;;;;;;;;;;15.41;32.66;99218.88;5093192;28;19965;-35
2023/04/06 09:34:32;;;;;;;;;;;;;;;16.39;31.97;99221.63;5092820;28;19916;-35
2023/04/06 09:36:58;;;;;;;;;;;;;;;16.85;31.24;99215.03;5092872;28;20453;-36
2023/04/06 09:39:23;;;;;;;;;;;;;;;16.61;31.55;99210.00;5092969;28;19920;-37
2023/04/06 09:41:52;;;;;;;;;;;;;;;16.60;31.26;99217.25;5092766;28;19912;-36
2023/04/06 09:44:18;;;;;;;;;;;;;;;16.61;30.91;99204.63;5092446;28;19912;-35
2023/04/06 09:46:44;;;;;;;;;;;;;;;16.86;31.12;99217.47;5092308;28;19919;-36
2023/04/06 09:49:11;;;;;;;;;;;;;;;16.11;32.58;99205.78;5092375;28;19912;-36
2023/04/06 09:51:40;;;;;;;;;;;;;;;15.92;31.17;99203.44;5092407;28;20007;-35
2023/04/06 09:54:06;;;;;;;;;;;;;;;16.45;30.98;99208.22;5092176;28;19916;-36
2023/04/06 09:56:37;;;;;;;;;;;;;;;16.35;30.90;99208.97;5092102;28;19912;-36
2023/04/06 09:59:05;;;;;;;;;;;;;;;16.05;30.93;99198.72;5092260;28;19916;-37
2023/04/06 10:01:32;;;;;;;;;;;;;;;16.28;31.94;99205.66;5092020;28;20022;-37
2023/04/06 10:04:07;;;;;;;;;;;;;;;16.77;30.52;99201.00;5092457;28;19981;-37
2023/04/06 10:06:35;;;;;;;;;;;;;;;16.69;29.80;99201.47;5091871;28;20331;-37
2023/04/06 10:09:01;;;;;;;;;;;;;;;15.88;30.93;99202.31;5091932;28;19987;-36
2023/04/06 10:11:26;;;;;;;;;;;;;;;15.98;31.51;99199.75;5091312;28;19998;-36
2023/04/06 10:13:52;;;;;;;;;;;;;;;16.30;31.23;99185.56;5091672;28;20452;-36
2023/04/06 10:16:18;;;;;;;;;;;;;;;16.20;30.13;99182.78;5091842;28;19912;-36
2023/04/06 10:18:46;;;;;;;;;;;;;;;15.95;31.37;99196.75;5091432;28;20353;-37
2023/04/06 10:21:12;;;;;;;;;;;;;;;15.95;30.99;99184.13;5091896;28;20010;-37
2023/04/06 10:23:41;;;;;;;;;;;;;;;15.57;31.71;99188.53;5091278;28;19923;-37
2023/04/06 10:26:12;;;;;;;;;;;;;;;15.91;31.25;99188.38;5091536;28;19916;-37
2023/04/06 10:28:37;;;;;;;;;;;;;;;15.86;30.65;99177.63;5091139;28;19913;-35
2023/04/06 10:31:06;;;;;;;;;;;;;;;15.93;31.29;99178.22;5091149;28;19918;-34
2023/04/06 10:33:31;;;;;;;;;;;;;;;16.09;31.71;99175.69;5090915;28;19999;-37
2023/04/06 10:35:57;;;;;;;;;;;;;;;17.36;29.44;99169.66;5090918;28;20114;-37
2023/04/06 10:38:35;;;;;;;;;;;;;;;17.05;29.72;99169.50;5090660;28;19915;-37
2023/04/06 10:41:03;;;;;;;;;;;;;;;17.56;29.01;99164.38;5091044;28;19912;-36
2023/04/06 10:43:32;;;;;;;;;;;;;;;18.02;29.03;99157.53;5091002;28;20355;-36
2023/04/06 10:45:59;;;;;;;;;;;;;;;17.84;29.07;99151.59;5090995;28;19919;-35
2023/04/06 10:48:25;;;;;;;;;;;;;;;18.02;29.00;99158.34;5091341;28;20003;-36
2023/04/06 10:50:52;;;;;;;;;;;;;;;17.79;29.15;99155.03;5090798;28;19935;-36
2023/04/06 10:53:21;;;;;;;;;;;;;;;17.33;29.71;99154.06;5091146;28;19912;-36
2023/04/06 10:55:47;;;;;;;;;;;;;;;16.73;29.43;99158.78;5091016;28;19969;-36
2023/04/06 10:58:12;;;;;;;;;;;;;;;16.00;30.57;99157.34;5091062;28;19912;-36
2023/04/06 11:00:43;;;;;;;;;;;;;;;16.49;30.48;99142.22;5091088;28;19912;-35
2023/04/06 11:03:08;;;;;;;;;;;;;;;16.63;29.78;99147.97;5091041;28;19912;-37
2023/04/06 11:05:35;;;;;;;;;;;;;;;16.17;30.54;99135.78;5090674;28;19916;-36
2023/04/06 11:08:00;;;;;;;;;;;;;;;17.00;29.58;99137.19;5091193;28;19912;-36
2023/04/06 11:10:25;;;;;;;;;;;;;;;16.54;30.31;99151.13;5090906;28;19919;-36
2023/04/06 11:12:54;;;;;;;;;;;;;;;16.54;30.56;99139.56;5091136;28;20280;-36
2023/04/06 11:15:20;;;;;;;;;;;;;;;16.77;29.48;99130.31;5090577;28;19916;-36
2023/04/06 11:17:45;;;;;;;;;;;;;;;16.61;29.02;99140.16;5090770;28;19919;-37
2023/04/06 11:20:11;;;;;;;;;;;;;;;16.88;28.72;99134.72;5090499;28;19935;-36
2023/04/06 11:22:36;;;;;;;;;;;;;;;16.58;28.19;99117.31;5090463;28;19916;-35
2023/04/06 11:25:05;;;;;;;;;;;;;;;17.06;29.07;99119.22;5090589;28;19947;-36
2023/04/06 11:27:31;;;;;;;;;;;;;;;17.39;28.93;99126.91;5090824;28;19919;-36
2023/04/06 11:29:57;;;;;;;;;;;;;;;17.51;28.78;99132.06;5090949;28;19916;-37
2023/04/06 11:32:24;;;;;;;;;;;;;;;18.08;28.77;99118.75;5090710;28;19966;-36
2023/04/06 11:34:49;;;;;;;;;;;;;;;17.68;28.31;99107.63;5090260;28;20310;-36
2023/04/06 11:37:14;;;;;;;;;;;;;;;17.74;27.81;99119.22;5090632;28;19912;-36
2023/04/06 11:39:42;;;;;;;;;;;;;;;16.52;28.64;99117.53;5090099;28;19912;-36
2023/04/06 11:42:08;;;;;;;;;;;;;;;16.49;29.10;99123.44;5090718;28;19912;-36
2023/04/06 11:44:34;;;;;;;;;;;;;;;16.00;29.55;99119.00;5090168;28;20007;-37
2023/04/06 11:47:03;;;;;;;;;;;;;;;16.63;29.36;99119.22;5090223;28;20452;-36
2023/04/06 11:49:29;;;;;;;;;;;;;;;17.29;28.57;99123.41;5090294;28;19935;-35
2023/04/06 11:51:55;;;;;;;;;;;;;;;17.03;28.37;99119.75;5090505;28;19916;-36
2023/04/06 11:54:33;;;;;;;;;;;;;;;16.32;28.94;99118.19;5090472;28;19994;-36
2023/04/06 11:57:00;;;;;;;;;;;;;;;16.00;29.16;99125.16;5090816;28;19969;-35
2023/04/06 11:59:27;;;;;;;;;;;;;;;16.13;29.73;99112.41;5090201;28;19913;-36
2023/04/06 12:01:53;;;;;;;;;;;;;;;15.77;30.38;99114.75;5090384;28;20010;-35
2023/04/06 12:04:18;;;;;;;;;;;;;;;15.67;30.56;99118.09;5090206;28;19912;-35
2023/04/06 12:06:43;;;;;;;;;;;;;;;15.76;30.18;99105.91;5090143;28;20328;-37
2023/04/06 12:09:08;;;;;;;;;;;;;;;15.88;30.26;99116.47;5090337;28;19996;-37
2023/04/06 12:11:34;;;;;;;;;;;;;;;15.78;30.75;99110.97;5090821;28;20336;-36
2023/04/06 12:14:01;;;;;;;;;;;;;;;15.96;30.73;99115.19;5090471;28;19966;-35
2023/04/06 12:16:26;;;;;;;;;;;;;;;15.61;31.34;99111.88;5090490;28;19920;-36
2023/04/06 12:18:52;;;;;;;;;;;;;;;15.53;31.74;99100.78;5090610;28;19924;-36
2023/04/06 12:21:17;;;;;;;;;;;;;;;15.88;31.21;99104.91;5090291;28;20273;-36
2023/04/06 12:23:42;;;;;;;;;;;;;;;16.22;30.29;99106.31;5090373;28;19960;-37
2023/04/06 12:26:07;;;;;;;;;;;;;;;16.09;31.00;99109.41;5090143;28;19947;-36
2023/04/06 12:28:33;;;;;;;;;;;;;;;16.11;31.36;99109.16;5090338;28;19912;-36
2023/04/06 12:30:58;;;;;;;;;;;;;;;15.97;31.59;99106.06;5090453;28;19912;-35
2023/04/06 12:33:24;;;;;;;;;;;;;;;16.15;30.77;99104.91;5090269;28;19912;-36
2023/04/06 12:35:49;;;;;;;;;;;;;;;16.21;30.86;99114.59;5093677;28;19964;-37
2023/04/06 12:38:15;;;;;;;;;;;;;;;16.17;31.31;99102.78;5094013;28;19920;-36
2023/04/06 12:40:41;;;;;;;;;;;;;;;16.05;31.11;99094.06;5093916;28;19912;-36
2023/04/06 12:43:06;;;;;;;;;;;;;;;15.80;30.99;99108.84;5094079;28;20265;-37
2023/04/06 12:45:31;;;;;;;;;;;;;;;15.71;31.49;99095.06;5094218;28;19939;-37